sensor_id;sensor_type;location;lat;lon;timestamp;P1;durP1;ratioP1;P2;durP2;ratioP2
10122;SDS011;5101;49.038;8.710;2023-12-20T00:00:12;1.80;;;1.70;;
10122;SDS011;5101;49.038;8.710;2023-12-20T00:02:38;1.92;;;1.83;;
10122;SDS011;5101;49.038;8.710;2023-12-20T00:05:04;2.80;;;2.20;;
10122;SDS011;5101;49.038;8.710;2023-12-20T00:07:30;1.98;;;1.83;;
10122;SDS011;5101;49.038;8.710;2023-12-20T00:09:56;2.25;;;2.10;;
10122;SDS011;5101;49.038;8.710;2023-12-20T00:12:21;2.22;;;2.10;;
10122;SDS011;5101;49.038;8.710;2023-12-20T00:14:47;2.30;;;2.10;;
10122;SDS011;5101;49.038;8.710;2023-12-20T00:17:13;2.63;;;2.40;;
10122;SDS011;5101;49.038;8.710;2023-12-20T00:19:38;3.17;;;2.25;;
10122;SDS011;5101;49.038;8.710;2023-12-20T00:22:04;2.83;;;2.40;;
10122;SDS011;5101;49.038;8.710;2023-12-20T00:24:29;3.03;;;2.63;;
10122;SDS011;5101;49.038;8.710;2023-12-20T00:26:55;2.60;;;2.40;;
10122;SDS011;5101;49.038;8.710;2023-12-20T00:29:20;3.08;;;2.78;;
10122;SDS011;5101;49.038;8.710;2023-12-20T00:31:46;3.17;;;2.88;;
10122;SDS011;5101;49.038;8.710;2023-12-20T00:34:11;6.88;;;3.00;;
10122;SDS011;5101;49.038;8.710;2023-12-20T00:36:37;3.70;;;2.70;;
10122;SDS011;5101;49.038;8.710;2023-12-20T00:39:02;2.85;;;2.65;;
10122;SDS011;5101;49.038;8.710;2023-12-20T00:41:28;5.40;;;2.95;;
10122;SDS011;5101;49.038;8.710;2023-12-20T00:43:53;3.17;;;2.50;;
10122;SDS011;5101;49.038;8.710;2023-12-20T00:46:19;3.90;;;3.00;;
10122;SDS011;5101;49.038;8.710;2023-12-20T00:48:44;3.47;;;3.15;;
10122;SDS011;5101;49.038;8.710;2023-12-20T00:51:10;3.88;;;3.13;;
10122;SDS011;5101;49.038;8.710;2023-12-20T00:53:36;3.03;;;2.73;;
10122;SDS011;5101;49.038;8.710;2023-12-20T00:56:02;3.28;;;2.97;;
10122;SDS011;5101;49.038;8.710;2023-12-20T00:58:27;3.92;;;3.00;;
10122;SDS011;5101;49.038;8.710;2023-12-20T01:00:53;3.35;;;3.05;;
10122;SDS011;5101;49.038;8.710;2023-12-20T01:03:18;3.13;;;2.70;;
10122;SDS011;5101;49.038;8.710;2023-12-20T01:05:44;3.00;;;2.70;;
10122;SDS011;5101;49.038;8.710;2023-12-20T01:08:09;3.07;;;2.77;;
10122;SDS011;5101;49.038;8.710;2023-12-20T01:10:35;3.08;;;2.85;;
10122;SDS011;5101;49.038;8.710;2023-12-20T01:13:00;3.15;;;2.85;;
10122;SDS011;5101;49.038;8.710;2023-12-20T01:15:26;3.83;;;2.70;;
10122;SDS011;5101;49.038;8.710;2023-12-20T01:17:51;3.00;;;2.73;;
10122;SDS011;5101;49.038;8.710;2023-12-20T01:20:17;3.33;;;2.95;;
10122;SDS011;5101;49.038;8.710;2023-12-20T01:22:44;3.93;;;3.03;;
10122;SDS011;5101;49.038;8.710;2023-12-20T01:25:10;3.33;;;2.87;;
10122;SDS011;5101;49.038;8.710;2023-12-20T01:27:36;3.90;;;2.70;;
10122;SDS011;5101;49.038;8.710;2023-12-20T01:30:02;2.90;;;2.70;;
10122;SDS011;5101;49.038;8.710;2023-12-20T01:32:28;2.73;;;2.47;;
10122;SDS011;5101;49.038;8.710;2023-12-20T01:34:53;2.60;;;2.40;;
10122;SDS011;5101;49.038;8.710;2023-12-20T01:37:19;2.93;;;2.37;;
10122;SDS011;5101;49.038;8.710;2023-12-20T01:39:44;2.95;;;2.60;;
10122;SDS011;5101;49.038;8.710;2023-12-20T01:42:10;2.47;;;2.27;;
10122;SDS011;5101;49.038;8.710;2023-12-20T01:44:35;2.45;;;2.22;;
10122;SDS011;5101;49.038;8.710;2023-12-20T01:47:01;2.25;;;2.05;;
10122;SDS011;5101;49.038;8.710;2023-12-20T01:49:26;1.90;;;1.80;;
10122;SDS011;5101;49.038;8.710;2023-12-20T01:51:52;1.85;;;1.70;;
10122;SDS011;5101;49.038;8.710;2023-12-20T01:54:18;1.95;;;1.77;;
10122;SDS011;5101;49.038;8.710;2023-12-20T01:56:45;1.85;;;1.75;;
10122;SDS011;5101;49.038;8.710;2023-12-20T01:59:11;1.70;;;1.50;;
10122;SDS011;5101;49.038;8.710;2023-12-20T02:01:37;2.00;;;1.90;;
10122;SDS011;5101;49.038;8.710;2023-12-20T02:04:03;1.77;;;1.47;;
10122;SDS011;5101;49.038;8.710;2023-12-20T02:06:29;1.60;;;1.50;;
10122;SDS011;5101;49.038;8.710;2023-12-20T02:08:58;1.90;;;1.80;;
10122;SDS011;5101;49.038;8.710;2023-12-20T02:11:24;1.73;;;1.63;;
10122;SDS011;5101;49.038;8.710;2023-12-20T02:13:50;2.27;;;1.80;;
10122;SDS011;5101;49.038;8.710;2023-12-20T02:16:16;3.00;;;1.63;;
10122;SDS011;5101;49.038;8.710;2023-12-20T02:18:42;1.70;;;1.60;;
10122;SDS011;5101;49.038;8.710;2023-12-20T02:21:09;1.90;;;1.70;;
10122;SDS011;5101;49.038;8.710;2023-12-20T02:23:35;1.70;;;1.60;;
10122;SDS011;5101;49.038;8.710;2023-12-20T02:26:00;1.95;;;1.65;;
10122;SDS011;5101;49.038;8.710;2023-12-20T02:28:26;1.70;;;1.55;;
10122;SDS011;5101;49.038;8.710;2023-12-20T02:30:52;2.55;;;1.20;;
10122;SDS011;5101;49.038;8.710;2023-12-20T02:33:18;1.48;;;1.30;;
10122;SDS011;5101;49.038;8.710;2023-12-20T02:35:43;1.57;;;1.23;;
10122;SDS011;5101;49.038;8.710;2023-12-20T02:38:08;1.15;;;1.10;;
10122;SDS011;5101;49.038;8.710;2023-12-20T02:40:34;1.27;;;1.17;;
10122;SDS011;5101;49.038;8.710;2023-12-20T02:43:00;1.33;;;1.20;;
10122;SDS011;5101;49.038;8.710;2023-12-20T02:45:26;1.30;;;1.20;;
10122;SDS011;5101;49.038;8.710;2023-12-20T02:47:52;1.17;;;1.00;;
10122;SDS011;5101;49.038;8.710;2023-12-20T02:50:17;1.48;;;1.23;;
10122;SDS011;5101;49.038;8.710;2023-12-20T02:52:44;1.50;;;1.40;;
10122;SDS011;5101;49.038;8.710;2023-12-20T02:55:10;1.40;;;1.30;;
10122;SDS011;5101;49.038;8.710;2023-12-20T02:57:36;1.40;;;1.30;;
10122;SDS011;5101;49.038;8.710;2023-12-20T03:00:06;2.77;;;1.40;;
10122;SDS011;5101;49.038;8.710;2023-12-20T03:02:35;1.50;;;1.40;;
10122;SDS011;5101;49.038;8.710;2023-12-20T03:05:01;1.60;;;1.50;;
10122;SDS011;5101;49.038;8.710;2023-12-20T03:07:28;1.60;;;1.50;;
10122;SDS011;5101;49.038;8.710;2023-12-20T03:09:53;1.65;;;1.55;;
10122;SDS011;5101;49.038;8.710;2023-12-20T03:12:19;1.60;;;1.50;;
10122;SDS011;5101;49.038;8.710;2023-12-20T03:14:44;2.42;;;1.85;;
10122;SDS011;5101;49.038;8.710;2023-12-20T03:17:10;2.03;;;1.90;;
10122;SDS011;5101;49.038;8.710;2023-12-20T03:19:36;1.63;;;1.37;;
10122;SDS011;5101;49.038;8.710;2023-12-20T03:22:01;1.63;;;1.53;;
10122;SDS011;5101;49.038;8.710;2023-12-20T03:24:27;1.97;;;1.87;;
10122;SDS011;5101;49.038;8.710;2023-12-20T03:26:52;1.60;;;1.50;;
10122;SDS011;5101;49.038;8.710;2023-12-20T03:29:18;1.88;;;1.40;;
10122;SDS011;5101;49.038;8.710;2023-12-20T03:31:44;1.95;;;1.50;;
10122;SDS011;5101;49.038;8.710;2023-12-20T03:34:10;1.90;;;1.70;;
10122;SDS011;5101;49.038;8.710;2023-12-20T03:36:36;1.60;;;1.50;;
10122;SDS011;5101;49.038;8.710;2023-12-20T03:39:01;1.80;;;1.70;;
10122;SDS011;5101;49.038;8.710;2023-12-20T03:41:27;1.93;;;1.60;;
10122;SDS011;5101;49.038;8.710;2023-12-20T03:43:53;1.83;;;1.50;;
10122;SDS011;5101;49.038;8.710;2023-12-20T03:46:18;1.50;;;1.40;;
10122;SDS011;5101;49.038;8.710;2023-12-20T03:48:44;1.63;;;1.53;;
10122;SDS011;5101;49.038;8.710;2023-12-20T03:51:09;1.80;;;1.70;;
10122;SDS011;5101;49.038;8.710;2023-12-20T03:53:35;1.60;;;1.50;;
10122;SDS011;5101;49.038;8.710;2023-12-20T03:56:00;2.30;;;1.30;;
10122;SDS011;5101;49.038;8.710;2023-12-20T03:58:26;3.58;;;1.25;;
10122;SDS011;5101;49.038;8.710;2023-12-20T04:00:51;1.70;;;1.60;;
10122;SDS011;5101;49.038;8.710;2023-12-20T04:03:17;1.90;;;1.30;;
10122;SDS011;5101;49.038;8.710;2023-12-20T04:05:42;1.67;;;1.57;;
10122;SDS011;5101;49.038;8.710;2023-12-20T04:08:08;1.30;;;1.20;;
10122;SDS011;5101;49.038;8.710;2023-12-20T04:10:34;1.20;;;1.10;;
10122;SDS011;5101;49.038;8.710;2023-12-20T04:13:00;1.70;;;1.60;;
10122;SDS011;5101;49.038;8.710;2023-12-20T04:15:25;1.35;;;1.25;;
10122;SDS011;5101;49.038;8.710;2023-12-20T04:17:51;2.10;;;1.90;;
10122;SDS011;5101;49.038;8.710;2023-12-20T04:20:16;1.63;;;1.37;;
10122;SDS011;5101;49.038;8.710;2023-12-20T04:22:42;1.52;;;1.42;;
10122;SDS011;5101;49.038;8.710;2023-12-20T04:25:07;1.60;;;1.47;;
10122;SDS011;5101;49.038;8.710;2023-12-20T04:27:33;1.23;;;1.13;;
10122;SDS011;5101;49.038;8.710;2023-12-20T04:29:59;2.13;;;1.47;;
10122;SDS011;5101;49.038;8.710;2023-12-20T04:32:24;1.63;;;1.53;;
10122;SDS011;5101;49.038;8.710;2023-12-20T04:34:50;1.73;;;1.47;;
10122;SDS011;5101;49.038;8.710;2023-12-20T04:37:15;1.40;;;1.30;;
10122;SDS011;5101;49.038;8.710;2023-12-20T04:39:41;1.50;;;1.40;;
10122;SDS011;5101;49.038;8.710;2023-12-20T04:42:06;1.50;;;1.40;;
10122;SDS011;5101;49.038;8.710;2023-12-20T04:44:32;1.38;;;1.20;;
10122;SDS011;5101;49.038;8.710;2023-12-20T04:46:57;1.60;;;1.50;;
10122;SDS011;5101;49.038;8.710;2023-12-20T04:49:23;1.50;;;1.40;;
10122;SDS011;5101;49.038;8.710;2023-12-20T04:51:49;2.40;;;1.53;;
10122;SDS011;5101;49.038;8.710;2023-12-20T04:54:14;1.80;;;1.70;;
10122;SDS011;5101;49.038;8.710;2023-12-20T04:56:40;8.47;;;1.63;;
10122;SDS011;5101;49.038;8.710;2023-12-20T04:59:06;2.07;;;1.87;;
10122;SDS011;5101;49.038;8.710;2023-12-20T05:01:31;2.57;;;1.90;;
10122;SDS011;5101;49.038;8.710;2023-12-20T05:03:57;2.03;;;1.88;;
10122;SDS011;5101;49.038;8.710;2023-12-20T05:06:23;2.22;;;2.03;;
10122;SDS011;5101;49.038;8.710;2023-12-20T05:08:49;2.30;;;1.98;;
10122;SDS011;5101;49.038;8.710;2023-12-20T05:11:15;2.30;;;2.10;;
10122;SDS011;5101;49.038;8.710;2023-12-20T05:13:41;2.90;;;2.60;;
10122;SDS011;5101;49.038;8.710;2023-12-20T05:16:07;3.03;;;2.33;;
10122;SDS011;5101;49.038;8.710;2023-12-20T05:18:33;2.70;;;2.50;;
10122;SDS011;5101;49.038;8.710;2023-12-20T05:20:59;3.50;;;2.80;;
10122;SDS011;5101;49.038;8.710;2023-12-20T05:23:25;2.67;;;2.47;;
10122;SDS011;5101;49.038;8.710;2023-12-20T05:25:50;3.93;;;2.83;;
10122;SDS011;5101;49.038;8.710;2023-12-20T05:28:15;2.80;;;2.50;;
10122;SDS011;5101;49.038;8.710;2023-12-20T05:30:42;2.60;;;2.40;;
10122;SDS011;5101;49.038;8.710;2023-12-20T05:33:08;2.87;;;2.57;;
10122;SDS011;5101;49.038;8.710;2023-12-20T05:35:34;2.90;;;2.70;;
10122;SDS011;5101;49.038;8.710;2023-12-20T05:37:59;2.93;;;2.73;;
10122;SDS011;5101;49.038;8.710;2023-12-20T05:40:25;3.20;;;2.90;;
10122;SDS011;5101;49.038;8.710;2023-12-20T05:42:51;3.27;;;2.97;;
10122;SDS011;5101;49.038;8.710;2023-12-20T05:45:16;3.57;;;3.23;;
10122;SDS011;5101;49.038;8.710;2023-12-20T05:47:42;4.20;;;2.83;;
10122;SDS011;5101;49.038;8.710;2023-12-20T05:50:07;3.37;;;2.97;;
10122;SDS011;5101;49.038;8.710;2023-12-20T05:52:34;4.27;;;3.60;;
10122;SDS011;5101;49.038;8.710;2023-12-20T05:54:59;3.80;;;3.40;;
10122;SDS011;5101;49.038;8.710;2023-12-20T05:57:26;3.47;;;3.17;;
10122;SDS011;5101;49.038;8.710;2023-12-20T05:59:52;4.10;;;3.70;;
10122;SDS011;5101;49.038;8.710;2023-12-20T06:02:17;4.90;;;4.10;;
10122;SDS011;5101;49.038;8.710;2023-12-20T06:04:43;3.77;;;3.47;;
10122;SDS011;5101;49.038;8.710;2023-12-20T06:07:11;4.03;;;3.43;;
10122;SDS011;5101;49.038;8.710;2023-12-20T06:09:37;4.37;;;3.97;;
10122;SDS011;5101;49.038;8.710;2023-12-20T06:12:02;4.03;;;3.70;;
10122;SDS011;5101;49.038;8.710;2023-12-20T06:14:28;4.00;;;3.60;;
10122;SDS011;5101;49.038;8.710;2023-12-20T06:16:55;4.10;;;3.70;;
10122;SDS011;5101;49.038;8.710;2023-12-20T06:19:20;3.85;;;3.45;;
10122;SDS011;5101;49.038;8.710;2023-12-20T06:21:46;3.90;;;3.50;;
10122;SDS011;5101;49.038;8.710;2023-12-20T06:24:11;4.17;;;3.83;;
10122;SDS011;5101;49.038;8.710;2023-12-20T06:26:37;3.83;;;3.38;;
10122;SDS011;5101;49.038;8.710;2023-12-20T06:29:03;4.95;;;3.95;;
10122;SDS011;5101;49.038;8.710;2023-12-20T06:31:28;3.70;;;3.28;;
10122;SDS011;5101;49.038;8.710;2023-12-20T06:33:54;4.73;;;4.23;;
10122;SDS011;5101;49.038;8.710;2023-12-20T06:36:22;4.20;;;3.80;;
10122;SDS011;5101;49.038;8.710;2023-12-20T06:38:49;4.10;;;3.70;;
10122;SDS011;5101;49.038;8.710;2023-12-20T06:41:15;3.63;;;3.33;;
10122;SDS011;5101;49.038;8.710;2023-12-20T06:43:41;4.17;;;3.83;;
10122;SDS011;5101;49.038;8.710;2023-12-20T06:46:07;3.63;;;3.23;;
10122;SDS011;5101;49.038;8.710;2023-12-20T06:48:32;3.78;;;3.47;;
10122;SDS011;5101;49.038;8.710;2023-12-20T06:50:59;3.75;;;3.40;;
10122;SDS011;5101;49.038;8.710;2023-12-20T06:53:27;3.80;;;3.50;;
10122;SDS011;5101;49.038;8.710;2023-12-20T06:55:52;3.90;;;3.60;;
10122;SDS011;5101;49.038;8.710;2023-12-20T06:58:18;3.78;;;3.47;;
10122;SDS011;5101;49.038;8.710;2023-12-20T07:00:43;3.92;;;3.58;;
10122;SDS011;5101;49.038;8.710;2023-12-20T07:03:09;4.05;;;3.58;;
10122;SDS011;5101;49.038;8.710;2023-12-20T07:05:34;5.17;;;4.20;;
10122;SDS011;5101;49.038;8.710;2023-12-20T07:08:00;4.47;;;3.60;;
10122;SDS011;5101;49.038;8.710;2023-12-20T07:10:25;4.20;;;3.83;;
10122;SDS011;5101;49.038;8.710;2023-12-20T07:12:51;4.50;;;4.10;;
10122;SDS011;5101;49.038;8.710;2023-12-20T07:15:17;3.90;;;3.60;;
10122;SDS011;5101;49.038;8.710;2023-12-20T07:17:43;3.60;;;3.30;;
10122;SDS011;5101;49.038;8.710;2023-12-20T07:20:09;3.20;;;2.90;;
10122;SDS011;5101;49.038;8.710;2023-12-20T07:22:35;3.30;;;3.10;;
10122;SDS011;5101;49.038;8.710;2023-12-20T07:25:01;3.97;;;3.50;;
10122;SDS011;5101;49.038;8.710;2023-12-20T07:27:27;5.23;;;3.67;;
10122;SDS011;5101;49.038;8.710;2023-12-20T07:29:52;5.30;;;3.50;;
10122;SDS011;5101;49.038;8.710;2023-12-20T07:32:18;5.88;;;3.55;;
10122;SDS011;5101;49.038;8.710;2023-12-20T07:34:43;3.63;;;3.33;;
10122;SDS011;5101;49.038;8.710;2023-12-20T07:37:09;3.50;;;3.20;;
10122;SDS011;5101;49.038;8.710;2023-12-20T07:39:39;3.57;;;3.27;;
10122;SDS011;5101;49.038;8.710;2023-12-20T07:42:05;3.87;;;2.77;;
10122;SDS011;5101;49.038;8.710;2023-12-20T07:44:31;3.80;;;2.78;;
10122;SDS011;5101;49.038;8.710;2023-12-20T07:46:56;3.28;;;3.05;;
10122;SDS011;5101;49.038;8.710;2023-12-20T07:49:22;7.33;;;3.50;;
10122;SDS011;5101;49.038;8.710;2023-12-20T07:51:48;3.37;;;2.90;;
10122;SDS011;5101;49.038;8.710;2023-12-20T07:54:14;2.70;;;2.50;;
10122;SDS011;5101;49.038;8.710;2023-12-20T07:56:40;3.10;;;2.80;;
10122;SDS011;5101;49.038;8.710;2023-12-20T07:59:05;2.87;;;2.67;;
10122;SDS011;5101;49.038;8.710;2023-12-20T08:01:30;3.35;;;2.47;;
10122;SDS011;5101;49.038;8.710;2023-12-20T08:03:56;5.47;;;2.30;;
10122;SDS011;5101;49.038;8.710;2023-12-20T08:06:22;2.58;;;2.38;;
10122;SDS011;5101;49.038;8.710;2023-12-20T08:08:47;2.53;;;2.33;;
10122;SDS011;5101;49.038;8.710;2023-12-20T08:11:13;3.73;;;2.50;;
10122;SDS011;5101;49.038;8.710;2023-12-20T08:13:38;5.50;;;2.67;;
10122;SDS011;5101;49.038;8.710;2023-12-20T08:16:04;3.47;;;2.88;;
10122;SDS011;5101;49.038;8.710;2023-12-20T08:18:30;3.20;;;2.63;;
10122;SDS011;5101;49.038;8.710;2023-12-20T08:20:55;3.17;;;2.80;;
10122;SDS011;5101;49.038;8.710;2023-12-20T08:23:21;5.27;;;3.60;;
10122;SDS011;5101;49.038;8.710;2023-12-20T08:25:46;3.90;;;3.50;;
10122;SDS011;5101;49.038;8.710;2023-12-20T08:28:13;4.87;;;4.07;;
10122;SDS011;5101;49.038;8.710;2023-12-20T08:30:38;4.03;;;3.33;;
10122;SDS011;5101;49.038;8.710;2023-12-20T08:33:04;5.13;;;2.60;;
10122;SDS011;5101;49.038;8.710;2023-12-20T08:35:32;3.80;;;2.72;;
10122;SDS011;5101;49.038;8.710;2023-12-20T08:37:58;5.60;;;3.60;;
10122;SDS011;5101;49.038;8.710;2023-12-20T08:40:23;3.67;;;3.38;;
10122;SDS011;5101;49.038;8.710;2023-12-20T08:42:49;3.13;;;2.83;;
10122;SDS011;5101;49.038;8.710;2023-12-20T08:45:14;3.07;;;2.77;;
10122;SDS011;5101;49.038;8.710;2023-12-20T08:47:40;2.80;;;2.60;;
10122;SDS011;5101;49.038;8.710;2023-12-20T08:50:06;3.70;;;2.63;;
10122;SDS011;5101;49.038;8.710;2023-12-20T08:52:32;2.50;;;2.30;;
10122;SDS011;5101;49.038;8.710;2023-12-20T08:54:58;4.13;;;2.05;;
10122;SDS011;5101;49.038;8.710;2023-12-20T08:57:23;4.78;;;2.50;;
10122;SDS011;5101;49.038;8.710;2023-12-20T08:59:50;2.45;;;1.80;;
10122;SDS011;5101;49.038;8.710;2023-12-20T09:02:16;4.35;;;1.67;;
10122;SDS011;5101;49.038;8.710;2023-12-20T09:04:42;3.60;;;1.80;;
10122;SDS011;5101;49.038;8.710;2023-12-20T09:07:20;2.92;;;1.50;;
10122;SDS011;5101;49.038;8.710;2023-12-20T09:09:50;1.83;;;1.27;;
10122;SDS011;5101;49.038;8.710;2023-12-20T09:12:17;1.27;;;1.17;;
10122;SDS011;5101;49.038;8.710;2023-12-20T09:14:49;1.67;;;1.23;;
10122;SDS011;5101;49.038;8.710;2023-12-20T09:17:16;3.22;;;1.33;;
10122;SDS011;5101;49.038;8.710;2023-12-20T09:19:42;5.28;;;1.58;;
10122;SDS011;5101;49.038;8.710;2023-12-20T09:22:11;5.18;;;1.40;;
10122;SDS011;5101;49.038;8.710;2023-12-20T09:24:37;4.93;;;1.13;;
10122;SDS011;5101;49.038;8.710;2023-12-20T09:27:03;4.00;;;1.25;;
10122;SDS011;5101;49.038;8.710;2023-12-20T09:29:30;2.50;;;1.33;;
10122;SDS011;5101;49.038;8.710;2023-12-20T09:31:55;4.32;;;1.33;;
10122;SDS011;5101;49.038;8.710;2023-12-20T09:34:22;3.33;;;1.23;;
10122;SDS011;5101;49.038;8.710;2023-12-20T09:36:48;3.83;;;1.25;;
10122;SDS011;5101;49.038;8.710;2023-12-20T09:39:13;1.15;;;0.90;;
10122;SDS011;5101;49.038;8.710;2023-12-20T09:41:42;3.30;;;1.00;;
10122;SDS011;5101;49.038;8.710;2023-12-20T09:44:11;4.75;;;1.10;;
10122;SDS011;5101;49.038;8.710;2023-12-20T09:46:39;3.08;;;0.85;;
10122;SDS011;5101;49.038;8.710;2023-12-20T09:49:14;3.28;;;0.93;;
10122;SDS011;5101;49.038;8.710;2023-12-20T09:51:42;3.38;;;1.15;;
10122;SDS011;5101;49.038;8.710;2023-12-20T09:54:07;2.90;;;1.33;;
10122;SDS011;5101;49.038;8.710;2023-12-20T09:56:34;3.28;;;1.17;;
10122;SDS011;5101;49.038;8.710;2023-12-20T09:59:00;1.50;;;0.93;;
10122;SDS011;5101;49.038;8.710;2023-12-20T10:01:25;4.68;;;1.15;;
10122;SDS011;5101;49.038;8.710;2023-12-20T10:03:54;1.88;;;0.90;;
10122;SDS011;5101;49.038;8.710;2023-12-20T10:06:20;3.22;;;1.00;;
10122;SDS011;5101;49.038;8.710;2023-12-20T10:08:46;2.85;;;0.88;;
10122;SDS011;5101;49.038;8.710;2023-12-20T10:11:12;6.60;;;2.20;;
10122;SDS011;5101;49.038;8.710;2023-12-20T10:13:41;2.75;;;0.98;;
10122;SDS011;5101;49.038;8.710;2023-12-20T10:16:06;3.90;;;1.60;;
10122;SDS011;5101;49.038;8.710;2023-12-20T10:18:32;4.00;;;1.45;;
10122;SDS011;5101;49.038;8.710;2023-12-20T10:20:58;3.23;;;1.23;;
10122;SDS011;5101;49.038;8.710;2023-12-20T10:23:25;4.10;;;1.40;;
10122;SDS011;5101;49.038;8.710;2023-12-20T10:25:57;3.67;;;1.15;;
10122;SDS011;5101;49.038;8.710;2023-12-20T10:28:23;3.88;;;1.30;;
10122;SDS011;5101;49.038;8.710;2023-12-20T10:30:53;3.15;;;1.30;;
10122;SDS011;5101;49.038;8.710;2023-12-20T10:33:26;3.78;;;1.13;;
10122;SDS011;5101;49.038;8.710;2023-12-20T10:35:55;4.38;;;1.40;;
10122;SDS011;5101;49.038;8.710;2023-12-20T10:38:21;5.68;;;1.52;;
10122;SDS011;5101;49.038;8.710;2023-12-20T10:40:47;3.50;;;1.40;;
10122;SDS011;5101;49.038;8.710;2023-12-20T10:43:13;3.58;;;1.38;;
10122;SDS011;5101;49.038;8.710;2023-12-20T10:45:40;4.75;;;1.60;;
10122;SDS011;5101;49.038;8.710;2023-12-20T10:48:07;5.07;;;1.73;;
10122;SDS011;5101;49.038;8.710;2023-12-20T10:50:36;4.68;;;1.58;;
10122;SDS011;5101;49.038;8.710;2023-12-20T10:53:03;5.13;;;2.00;;
10122;SDS011;5101;49.038;8.710;2023-12-20T10:55:29;4.88;;;2.10;;
10122;SDS011;5101;49.038;8.710;2023-12-20T10:57:58;4.03;;;2.03;;
10122;SDS011;5101;49.038;8.710;2023-12-20T11:00:31;6.65;;;1.77;;
10122;SDS011;5101;49.038;8.710;2023-12-20T11:02:59;3.35;;;1.63;;
10122;SDS011;5101;49.038;8.710;2023-12-20T11:05:31;3.38;;;1.85;;
10122;SDS011;5101;49.038;8.710;2023-12-20T11:11:00;6.13;;;1.97;;
10122;SDS011;5101;49.038;8.710;2023-12-20T11:13:36;9.55;;;2.00;;
10122;SDS011;5101;49.038;8.710;2023-12-20T11:16:08;7.28;;;1.90;;
10122;SDS011;5101;49.038;8.710;2023-12-20T11:18:33;4.53;;;2.00;;
10122;SDS011;5101;49.038;8.710;2023-12-20T11:21:02;6.03;;;2.00;;
10122;SDS011;5101;49.038;8.710;2023-12-20T11:23:30;3.47;;;1.50;;
10122;SDS011;5101;49.038;8.710;2023-12-20T11:25:59;4.15;;;1.60;;
10122;SDS011;5101;49.038;8.710;2023-12-20T11:28:25;5.65;;;1.63;;
10122;SDS011;5101;49.038;8.710;2023-12-20T11:30:52;6.00;;;1.73;;
10122;SDS011;5101;49.038;8.710;2023-12-20T11:33:22;5.13;;;1.75;;
10122;SDS011;5101;49.038;8.710;2023-12-20T11:35:48;4.65;;;1.90;;
10122;SDS011;5101;49.038;8.710;2023-12-20T11:38:14;5.38;;;2.00;;
10122;SDS011;5101;49.038;8.710;2023-12-20T11:40:43;7.28;;;1.85;;
10122;SDS011;5101;49.038;8.710;2023-12-20T11:43:09;5.93;;;1.80;;
10122;SDS011;5101;49.038;8.710;2023-12-20T11:45:34;5.80;;;1.83;;
10122;SDS011;5101;49.038;8.710;2023-12-20T11:48:01;5.20;;;2.00;;
10122;SDS011;5101;49.038;8.710;2023-12-20T11:50:27;5.07;;;1.75;;
10122;SDS011;5101;49.038;8.710;2023-12-20T11:52:55;6.15;;;1.80;;
10122;SDS011;5101;49.038;8.710;2023-12-20T11:55:23;6.13;;;2.17;;
10122;SDS011;5101;49.038;8.710;2023-12-20T11:57:50;6.03;;;1.88;;
10122;SDS011;5101;49.038;8.710;2023-12-20T12:00:16;6.97;;;2.20;;
10122;SDS011;5101;49.038;8.710;2023-12-20T12:02:42;4.63;;;2.35;;
10122;SDS011;5101;49.038;8.710;2023-12-20T12:05:08;7.30;;;2.78;;
10122;SDS011;5101;49.038;8.710;2023-12-20T12:07:34;9.32;;;2.90;;
10122;SDS011;5101;49.038;8.710;2023-12-20T12:10:00;8.00;;;2.95;;
10122;SDS011;5101;49.038;8.710;2023-12-20T12:12:25;5.38;;;2.03;;
10122;SDS011;5101;49.038;8.710;2023-12-20T12:14:52;4.95;;;2.10;;
10122;SDS011;5101;49.038;8.710;2023-12-20T12:17:19;7.15;;;3.03;;
10122;SDS011;5101;49.038;8.710;2023-12-20T12:19:44;5.20;;;2.53;;
10122;SDS011;5101;49.038;8.710;2023-12-20T12:22:11;7.35;;;2.42;;
10122;SDS011;5101;49.038;8.710;2023-12-20T12:24:45;4.55;;;1.98;;
10122;SDS011;5101;49.038;8.710;2023-12-20T12:27:12;4.97;;;1.90;;
10122;SDS011;5101;49.038;8.710;2023-12-20T12:29:38;4.88;;;1.80;;
10122;SDS011;5101;49.038;8.710;2023-12-20T12:32:05;7.55;;;1.77;;
10122;SDS011;5101;49.038;8.710;2023-12-20T12:34:32;7.20;;;2.35;;
10122;SDS011;5101;49.038;8.710;2023-12-20T12:36:59;8.00;;;2.10;;
10122;SDS011;5101;49.038;8.710;2023-12-20T12:39:24;4.75;;;1.75;;
10122;SDS011;5101;49.038;8.710;2023-12-20T12:41:50;10.13;;;2.45;;
10122;SDS011;5101;49.038;8.710;2023-12-20T12:44:16;8.32;;;2.22;;
10122;SDS011;5101;49.038;8.710;2023-12-20T12:46:42;6.53;;;2.33;;
10122;SDS011;5101;49.038;8.710;2023-12-20T12:49:09;8.02;;;1.65;;
10122;SDS011;5101;49.038;8.710;2023-12-20T12:51:34;6.32;;;2.33;;
10122;SDS011;5101;49.038;8.710;2023-12-20T12:54:00;6.10;;;2.00;;
10122;SDS011;5101;49.038;8.710;2023-12-20T12:56:25;8.52;;;1.80;;
10122;SDS011;5101;49.038;8.710;2023-12-20T12:58:51;8.20;;;2.00;;
10122;SDS011;5101;49.038;8.710;2023-12-20T13:01:17;7.93;;;1.73;;
10122;SDS011;5101;49.038;8.710;2023-12-20T13:03:42;7.13;;;2.13;;
10122;SDS011;5101;49.038;8.710;2023-12-20T13:06:08;7.07;;;2.03;;
10122;SDS011;5101;49.038;8.710;2023-12-20T13:08:34;6.47;;;1.60;;
10122;SDS011;5101;49.038;8.710;2023-12-20T13:10:59;8.57;;;2.50;;
10122;SDS011;5101;49.038;8.710;2023-12-20T13:13:26;8.10;;;1.63;;
10122;SDS011;5101;49.038;8.710;2023-12-20T13:15:52;8.48;;;2.03;;
10122;SDS011;5101;49.038;8.710;2023-12-20T13:18:20;7.43;;;2.13;;
10122;SDS011;5101;49.038;8.710;2023-12-20T13:20:45;7.65;;;2.00;;
10122;SDS011;5101;49.038;8.710;2023-12-20T13:23:11;5.63;;;1.95;;
10122;SDS011;5101;49.038;8.710;2023-12-20T13:25:37;8.43;;;2.15;;
10122;SDS011;5101;49.038;8.710;2023-12-20T13:28:02;7.90;;;2.35;;
10122;SDS011;5101;49.038;8.710;2023-12-20T13:30:28;5.75;;;1.90;;
10122;SDS011;5101;49.038;8.710;2023-12-20T13:32:54;5.88;;;1.80;;
10122;SDS011;5101;49.038;8.710;2023-12-20T13:35:20;6.50;;;2.13;;
10122;SDS011;5101;49.038;8.710;2023-12-20T13:37:45;7.15;;;2.05;;
10122;SDS011;5101;49.038;8.710;2023-12-20T13:40:11;5.93;;;2.17;;
10122;SDS011;5101;49.038;8.710;2023-12-20T13:42:37;3.45;;;1.50;;
10122;SDS011;5101;49.038;8.710;2023-12-20T13:45:03;6.40;;;1.70;;
10122;SDS011;5101;49.038;8.710;2023-12-20T13:47:29;7.47;;;1.90;;
10122;SDS011;5101;49.038;8.710;2023-12-20T13:49:55;5.30;;;1.90;;
10122;SDS011;5101;49.038;8.710;2023-12-20T13:52:21;5.00;;;1.45;;
10122;SDS011;5101;49.038;8.710;2023-12-20T13:54:47;4.90;;;1.60;;
10122;SDS011;5101;49.038;8.710;2023-12-20T13:57:12;8.93;;;1.80;;
10122;SDS011;5101;49.038;8.710;2023-12-20T13:59:38;5.88;;;1.70;;
10122;SDS011;5101;49.038;8.710;2023-12-20T14:02:03;5.97;;;1.83;;
10122;SDS011;5101;49.038;8.710;2023-12-20T14:04:29;6.60;;;1.70;;
10122;SDS011;5101;49.038;8.710;2023-12-20T14:06:56;7.47;;;1.60;;
10122;SDS011;5101;49.038;8.710;2023-12-20T14:09:21;6.82;;;1.90;;
10122;SDS011;5101;49.038;8.710;2023-12-20T14:11:47;7.05;;;2.10;;
10122;SDS011;5101;49.038;8.710;2023-12-20T14:14:12;4.93;;;1.90;;
10122;SDS011;5101;49.038;8.710;2023-12-20T14:16:38;7.65;;;1.73;;
10122;SDS011;5101;49.038;8.710;2023-12-20T14:19:03;3.58;;;1.30;;
10122;SDS011;5101;49.038;8.710;2023-12-20T14:21:32;7.38;;;1.52;;
10122;SDS011;5101;49.038;8.710;2023-12-20T14:23:58;6.10;;;1.88;;
10122;SDS011;5101;49.038;8.710;2023-12-20T14:26:24;9.32;;;1.75;;
10122;SDS011;5101;49.038;8.710;2023-12-20T14:28:49;4.72;;;1.63;;
10122;SDS011;5101;49.038;8.710;2023-12-20T14:31:15;5.40;;;1.50;;
10122;SDS011;5101;49.038;8.710;2023-12-20T14:33:40;6.10;;;1.95;;
10122;SDS011;5101;49.038;8.710;2023-12-20T14:36:07;5.73;;;1.90;;
10122;SDS011;5101;49.038;8.710;2023-12-20T14:38:33;6.85;;;2.00;;
10122;SDS011;5101;49.038;8.710;2023-12-20T14:40:59;10.70;;;2.15;;
10122;SDS011;5101;49.038;8.710;2023-12-20T14:43:25;6.90;;;1.50;;
10122;SDS011;5101;49.038;8.710;2023-12-20T14:45:54;6.97;;;1.77;;
10122;SDS011;5101;49.038;8.710;2023-12-20T14:48:20;7.13;;;1.80;;
10122;SDS011;5101;49.038;8.710;2023-12-20T14:50:46;6.57;;;2.00;;
10122;SDS011;5101;49.038;8.710;2023-12-20T14:53:13;7.90;;;1.85;;
10122;SDS011;5101;49.038;8.710;2023-12-20T14:55:41;3.65;;;1.27;;